Time;durP1;ratioP1;P1;durP2;ratioP2;P2;SDS_P1;SDS_P2;PMS_P1;PMS_P2;Temp;Humidity;BMP_temperature;BMP_pressure;BME280_temperature;BME280_humidity;BME280_pressure;Samples;Min_cycle;Max_cycle;Signal;HPM_P1;HPM_P2
2023/01/19 00:01:35;;;;;;;20.52;13.48;;;16.60;75.60;;;17.68;42.66;97353.50;5093217;27;20118;-83
2023/01/19 00:04:01;;;;;;;22.17;13.75;;;16.60;75.40;;;17.63;42.28;97352.94;5090740;27;20039;-82
2023/01/19 00:06:27;;;;;;;18.10;12.77;;;16.60;75.00;;;17.60;42.34;97354.44;5058235;27;20552;-83
2023/01/19 00:08:53;;;;;;;24.55;13.63;;;16.60;75.00;;;17.54;42.45;97350.38;5073350;27;20058;-83
2023/01/19 00:11:20;;;;;;;26.10;15.65;;;16.60;75.00;;;17.58;42.53;97343.84;5097682;27;20497;-83
2023/01/19 00:13:49;;;;;;;22.85;14.10;;;16.60;75.00;;;17.55;42.58;97339.09;5091580;27;20047;-83
2023/01/19 00:16:17;;;;;;;24.67;13.88;;;16.50;74.80;;;17.57;42.29;97339.50;5077888;27;20039;-83
2023/01/19 00:18:44;;;;;;;25.02;15.15;;;16.50;74.80;;;17.55;42.44;97344.56;5079410;27;20474;-83
2023/01/19 00:21:10;;;;;;;23.77;15.35;;;16.50;74.80;;;17.55;42.18;97350.03;5062895;27;20043;-83
2023/01/19 00:23:37;;;;;;;26.52;15.48;;;16.50;74.80;;;17.48;42.42;97343.59;5082838;27;20043;-83
2023/01/19 00:26:03;;;;;;;24.55;14.82;;;16.50;74.80;;;17.53;42.30;97348.81;5106650;27;20035;-83
2023/01/19 00:28:29;;;;;;;22.85;14.25;;;16.50;75.40;;;17.63;42.46;97340.03;5061969;27;20114;-83
2023/01/19 00:30:55;;;;;;;27.85;15.70;;;16.50;75.50;;;17.67;42.55;97342.84;5078829;27;20031;-84
2023/01/19 00:33:21;;;;;;;25.38;14.45;;;16.60;75.60;;;17.59;42.48;97336.41;5096987;27;20046;-83
2023/01/19 00:35:51;;;;;;;22.70;12.45;;;16.60;75.00;;;17.56;42.30;97343.41;5092790;27;20039;-83
2023/01/19 00:38:18;;;;;;;23.30;13.80;;;16.60;75.00;;;17.57;42.42;97350.47;5080690;27;20042;-83
2023/01/19 00:40:44;;;;;;;25.67;16.90;;;16.60;75.00;;;17.55;42.35;97357.44;5097851;27;20423;-83
2023/01/19 00:43:10;;;;;;;26.40;14.95;;;16.50;74.80;;;17.50;42.81;97361.28;5082613;27;20039;-83
2023/01/19 00:45:36;;;;;;;24.52;16.25;;;16.40;74.80;;;17.53;42.42;97355.09;5076674;27;20035;-83
2023/01/19 00:48:03;;;;;;;22.55;15.27;;;16.50;74.90;;;17.57;42.17;97353.19;5079106;27;20039;-83
2023/01/19 00:50:29;;;;;;;24.13;15.10;;;16.50;74.80;;;17.54;42.59;97350.38;5078223;27;20131;-84
2023/01/19 00:52:56;;;;;;;24.58;14.15;;;16.50;74.80;;;17.54;42.17;97347.66;5080715;27;20095;-83
2023/01/19 00:55:22;;;;;;;24.98;14.85;;;16.50;74.80;;;17.61;42.32;97341.56;5078044;27;20035;-84
2023/01/19 00:57:48;;;;;;;25.42;15.90;;;16.50;75.30;;;17.67;42.52;97342.84;5079387;27;20385;-83
2023/01/19 01:00:18;;;;;;;23.63;14.02;;;16.60;75.40;;;17.68;42.60;97338.97;5053965;27;20043;-83
2023/01/19 01:02:44;;;;;;;27.27;14.82;;;16.60;75.50;;;17.62;42.52;97338.44;5075472;27;20193;-83
2023/01/19 01:05:11;;;;;;;24.55;16.08;;;16.60;75.10;;;17.64;42.20;97341.63;5093798;27;20043;-83
2023/01/19 01:07:39;;;;;;;29.35;16.55;;;16.60;75.00;;;17.67;42.20;97346.38;5075679;27;20041;-83
2023/01/19 01:10:11;;;;;;;25.55;15.68;;;16.60;75.00;;;17.72;42.02;97346.13;5079717;27;20717;-84
2023/01/19 01:12:38;;;;;;;23.17;14.75;;;16.70;75.10;;;17.75;42.08;97345.41;5076133;27;20047;-83
2023/01/19 01:15:09;;;;;;;26.27;15.02;;;16.70;75.10;;;17.74;41.96;97346.56;5056927;28;20513;-83
2023/01/19 01:17:35;;;;;;;32.15;15.20;;;16.60;75.00;;;17.78;41.98;97346.63;5079223;27;20118;-84
2023/01/19 01:20:03;;;;;;;22.55;15.80;;;16.60;75.00;;;17.80;41.93;97341.63;5093854;27;20051;-83
2023/01/19 01:22:29;;;;;;;22.20;15.27;;;16.70;75.00;;;17.85;41.99;97337.81;5072037;27;20035;-84
2023/01/19 01:24:55;;;;;;;22.83;15.45;;;16.70;74.70;;;17.86;41.90;97336.66;5078509;27;20481;-84
2023/01/19 01:27:24;;;;;;;26.45;16.33;;;16.80;74.60;;;17.89;41.69;97338.72;5062149;28;20039;-83
2023/01/19 01:29:50;;;;;;;25.17;16.73;;;16.80;74.50;;;17.91;41.69;97334.44;5092875;27;20466;-83
2023/01/19 01:32:17;;;;;;;26.05;16.60;;;16.80;74.50;;;17.94;41.60;97333.72;5093634;27;20035;-83
2023/01/19 01:34:43;;;;;;;26.95;16.75;;;16.80;74.50;;;17.93;41.73;97334.88;5076037;27;20039;-84
2023/01/19 01:37:10;;;;;;;29.77;17.73;;;16.80;74.40;;;17.94;41.59;97336.47;5076579;27;20047;-83
2023/01/19 01:39:36;;;;;;;27.58;17.77;;;16.90;75.10;;;17.96;41.55;97333.34;5097361;27;20039;-83
2023/01/19 01:42:07;;;;;;;25.70;15.35;;;16.90;74.20;;;17.92;41.69;97330.53;5094368;27;20078;-84
2023/01/19 01:44:52;;;;;;;23.65;16.02;;;16.90;74.30;;;17.96;41.67;97328.69;5051685;27;20075;-84
2023/01/19 01:47:31;;;;;;;28.23;16.58;;;16.90;74.10;;;17.94;41.69;97324.72;5094552;27;20035;-84
2023/01/19 01:50:21;;;;;;;25.63;15.00;;;16.90;74.10;;;17.97;41.46;97327.53;5106254;27;20074;-84
2023/01/19 01:52:58;;;;;;;24.85;15.38;;;16.90;74.10;;;18.02;41.59;97322.91;5082907;27;20047;-84
2023/01/19 01:55:24;;;;;;;28.27;15.32;;;17.00;74.10;;;18.00;41.50;97310.34;5094477;27;20089;-83
2023/01/19 01:58:10;;;;;;;30.23;16.52;;;17.00;74.10;;;18.07;41.56;97309.72;5079174;27;20053;-83
2023/01/19 02:03:24;;;;;;;24.63;15.75;;;17.20;74.30;;;18.12;41.57;97306.69;5086159;27;20043;-83
2023/01/19 02:05:50;;;;;;;28.17;15.07;;;17.10;74.20;;;18.16;41.47;97314.97;5092731;28;20085;-83
2023/01/19 02:14:04;;;;;;;25.05;16.30;;;17.10;74.20;;;18.24;41.63;97311.22;5085099;28;20035;-83
2023/01/19 02:16:30;;;;;;;26.33;17.15;;;17.20;74.50;;;18.28;42.01;97301.13;5073086;28;20054;-83
2023/01/19 02:18:56;;;;;;;23.90;15.43;;;17.20;74.40;;;18.30;41.47;97304.31;5077484;28;20063;-84
2023/01/19 02:21:34;;;;;;;24.55;16.88;;;17.20;74.30;;;18.31;41.59;97299.63;5062827;28;20555;-83
2023/01/19 02:24:01;;;;;;;25.60;16.15;;;17.20;74.50;;;18.32;41.68;97302.00;5107513;28;20036;-83
2023/01/19 02:26:43;;;;;;;24.83;15.70;;;17.20;74.40;;;18.34;41.47;97299.69;5053402;28;20053;-84
2023/01/19 02:29:19;;;;;;;25.92;15.68;;;17.20;74.20;;;18.38;41.43;97289.56;5094388;28;20488;-83
2023/01/19 02:31:45;;;;;;;25.08;16.17;;;17.30;74.20;;;18.39;41.37;97301.34;5074963;27;20131;-84
2023/01/19 02:34:14;;;;;;;23.50;15.50;;;17.30;74.30;;;18.39;41.49;97302.16;5079013;27;20342;-84
2023/01/19 02:36:59;;;;;;;26.88;15.90;;;17.30;74.20;;;18.43;41.41;97303.00;5065343;27;20525;-83
2023/01/19 02:39:53;;;;;;;26.35;16.83;;;17.40;74.30;;;18.43;41.36;97303.00;5081531;27;20035;-83
2023/01/19 02:42:31;;;;;;;28.90;17.23;;;17.30;74.30;;;18.50;41.12;97307.06;5076603;27;20475;-84
2023/01/19 02:44:58;;;;;;;25.55;16.90;;;17.30;74.30;;;18.49;41.33;97300.75;5089805;27;20058;-84
2023/01/19 02:47:24;;;;;;;27.75;16.73;;;17.40;74.20;;;18.49;41.29;97303.50;5059473;27;20578;-84
2023/01/19 02:49:56;;;;;;;28.80;17.05;;;17.40;74.10;;;18.51;41.27;97314.13;5077810;27;20043;-84
2023/01/19 02:52:22;;;;;;;23.35;15.45;;;17.40;74.10;;;18.54;41.13;97305.16;5077102;27;20082;-84
2023/01/19 02:55:14;;;;;;;25.00;16.58;;;17.40;73.90;;;18.54;41.13;97307.91;5080242;27;20092;-83
2023/01/19 02:58:07;;;;;;;28.15;16.67;;;17.40;74.10;;;18.53;41.37;97309.09;5097758;27;20403;-84
2023/01/19 03:00:50;;;;;;;28.63;16.60;;;17.50;74.10;;;18.54;41.15;97310.66;5116380;27;20035;-84
2023/01/19 03:03:38;;;;;;;33.25;17.40;;;17.50;74.00;;;18.58;41.24;97311.53;5078461;27;20037;-84
2023/01/19 03:06:41;;;;;;;26.73;16.85;;;17.50;74.00;;;18.57;41.13;97315.41;5114286;27;20039;-84
2023/01/19 03:09:40;;;;;;;28.17;16.20;;;17.50;74.00;;;18.56;41.32;97322.88;5106498;27;20055;-84
2023/01/19 03:12:29;;;;;;;25.90;17.15;;;17.50;74.00;;;18.58;41.27;97326.06;5101937;27;20057;-84
2023/01/19 03:14:59;;;;;;;21.52;14.27;;;17.50;73.90;;;18.61;41.31;97325.31;5108867;27;20390;-84
2023/01/19 03:17:26;;;;;;;22.00;15.70;;;17.60;73.90;;;18.60;41.18;97322.97;5081111;27;20031;-84
2023/01/19 03:19:52;;;;;;;24.50;15.75;;;17.60;74.70;;;18.60;41.11;97321.00;5063728;27;20084;-84
2023/01/19 03:22:25;;;;;;;25.95;15.50;;;17.50;73.90;;;18.63;41.10;97328.50;5060710;27;20043;-84
2023/01/19 03:24:53;;;;;;;28.83;16.77;;;17.60;73.90;;;18.64;40.97;97323.81;5094826;27;20035;-84
2023/01/19 03:27:39;;;;;;;23.70;14.80;;;17.60;73.90;;;18.58;41.00;97315.06;5076260;27;20573;-84
2023/01/19 03:30:23;;;;;;;21.52;15.10;;;17.60;73.80;;;18.62;41.19;97315.13;5064443;27;20071;-84
2023/01/19 03:32:53;;;;;;;26.85;16.42;;;17.60;73.70;;;18.65;41.16;97319.91;5090092;27;20047;-84
2023/01/19 03:35:21;;;;;;;23.17;14.90;;;17.70;73.90;;;18.65;41.24;97312.47;5062872;27;20036;-84
2023/01/19 03:37:49;;;;;;;22.08;14.05;;;17.70;74.10;;;18.68;41.25;97312.91;5076675;27;20046;-84
2023/01/19 03:40:15;;;;;;;24.58;16.40;;;17.70;73.90;;;18.66;41.03;97321.50;5081285;27;20040;-84
2023/01/19 03:42:41;;;;;;;24.05;16.63;;;17.60;73.80;;;18.69;41.19;97320.75;5076711;27;20046;-83
2023/01/19 03:45:08;;;;;;;21.88;14.98;;;17.60;73.90;;;18.68;41.18;97313.69;5062004;27;20043;-84
2023/01/19 03:47:34;;;;;;;24.13;14.68;;;17.70;73.90;;;18.66;41.41;97327.00;5078600;27;20099;-84
2023/01/19 03:50:01;;;;;;;21.23;14.55;;;17.70;73.90;;;18.68;41.29;97332.13;5080286;27;20111;-84
2023/01/19 03:52:29;;;;;;;24.98;16.63;;;17.70;74.10;;;18.69;41.35;97336.44;5078606;27;20055;-84
2023/01/19 03:54:55;;;;;;;25.25;16.02;;;17.70;74.10;;;18.65;41.51;97342.69;5064215;27;20131;-84
2023/01/19 03:57:21;;;;;;;24.95;16.52;;;17.60;74.10;;;18.67;41.36;97342.28;5095853;27;20038;-84
2023/01/19 03:59:48;;;;;;;26.17;16.20;;;17.70;74.10;;;18.67;41.39;97331.31;5058880;27;20044;-84
2023/01/19 04:02:14;;;;;;;23.83;16.35;;;17.70;74.10;;;18.69;41.27;97329.00;5078026;27;20062;-84
2023/01/19 04:04:40;;;;;;;25.38;16.35;;;17.70;74.10;;;18.70;41.29;97322.38;5070752;27;20044;-84
2023/01/19 04:07:09;;;;;;;28.45;16.15;;;17.70;74.00;;;18.67;41.29;97323.06;5097090;27;20488;-84
2023/01/19 04:09:35;;;;;;;26.73;16.20;;;17.70;74.00;;;18.67;41.29;97334.06;5059440;27;20059;-84
2023/01/19 04:12:02;;;;;;;22.98;14.90;;;17.70;74.10;;;18.69;41.25;97348.22;5092991;27;20043;-84
2023/01/19 04:14:28;;;;;;;27.90;15.40;;;17.70;74.10;;;18.70;41.57;97360.81;5076918;27;20123;-84
2023/01/19 04:16:54;;;;;;;22.50;15.40;;;17.70;74.20;;;18.71;41.47;97365.16;5059514;27;20043;-84
2023/01/19 04:19:20;;;;;;;25.65;15.05;;;17.80;74.10;;;18.70;41.37;97349.00;5078741;27;20050;-84
2023/01/19 04:21:50;;;;;;;24.98;16.15;;;17.70;74.00;;;18.71;41.11;97334.94;5111607;27;20170;-84
2023/01/19 04:24:17;;;;;;;23.00;15.00;;;17.70;74.10;;;18.67;41.54;97325.81;5073183;27;20039;-84
2023/01/19 04:26:43;;;;;;;22.17;14.90;;;17.70;74.10;;;18.64;41.59;97315.56;5080344;27;20043;-84
2023/01/19 04:29:09;;;;;;;23.92;15.30;;;17.60;74.10;;;18.69;41.53;97322.72;5057778;27;20488;-84
2023/01/19 04:31:35;;;;;;;27.50;16.42;;;17.70;74.20;;;18.70;41.44;97311.38;5094442;27;20047;-84
2023/01/19 04:34:02;;;;;;;19.60;14.40;;;17.80;74.30;;;18.69;41.41;97311.72;5071101;27;20088;-84
2023/01/19 04:36:29;;;;;;;24.25;15.48;;;17.70;74.20;;;18.69;41.40;97314.47;5072435;27;20857;-84
2023/01/19 04:38:55;;;;;;;25.08;15.93;;;17.70;74.20;;;18.69;41.49;97318.00;5076078;27;20049;-83
2023/01/19 04:41:21;;;;;;;22.98;15.45;;;17.70;74.30;;;18.67;41.39;97336.81;5095531;27;20039;-84
2023/01/19 04:43:47;;;;;;;24.83;15.40;;;17.70;74.20;;;18.67;41.20;97342.28;5073934;27;20084;-84
2023/01/19 04:46:14;;;;;;;22.38;15.48;;;17.70;74.10;;;18.68;41.32;97348.59;5077637;27;20039;-83
2023/01/19 04:48:40;;;;;;;21.75;14.75;;;17.70;74.10;;;18.67;41.34;97361.53;5074231;27;20048;-83
2023/01/19 04:51:07;;;;;;;21.15;14.40;;;17.60;73.90;;;18.66;41.25;97363.47;5108347;27;20363;-83
2023/01/19 04:53:33;;;;;;;23.85;15.57;;;17.70;74.10;;;18.66;41.36;97370.94;5062979;27;20505;-84
2023/01/19 04:55:59;;;;;;;20.80;14.18;;;17.60;74.00;;;18.69;41.15;97372.94;5093917;27;20031;-84
2023/01/19 04:58:26;;;;;;;22.67;15.25;;;17.70;74.00;;;18.65;41.51;97364.66;5077483;27;20070;-84
2023/01/19 05:00:52;;;;;;;19.75;13.68;;;17.70;74.20;;;18.65;41.36;97378.38;5097062;27;20043;-84
2023/01/19 05:03:18;;;;;;;23.73;15.18;;;17.70;74.10;;;18.64;41.68;97395.22;5081244;27;20032;-83
2023/01/19 05:05:45;;;;;;;25.70;16.20;;;17.70;74.20;;;18.66;41.43;97387.41;5077867;27;20115;-84
2023/01/19 05:08:11;;;;;;;23.10;14.68;;;17.60;74.20;;;18.66;41.46;97379.16;5096670;27;20078;-83
2023/01/19 05:10:38;;;;;;;21.52;13.45;;;17.60;74.20;;;18.68;41.34;97384.31;5094933;27;20037;-83
2023/01/19 05:13:04;;;;;;;23.52;16.10;;;17.70;74.20;;;18.69;41.26;97396.88;5085151;27;20032;-83
2023/01/19 05:15:30;;;;;;;24.85;14.75;;;17.70;74.20;;;18.69;41.58;97392.16;5096937;27;20043;-83
2023/01/19 05:17:59;;;;;;;23.98;14.43;;;17.70;74.30;;;18.68;41.77;97387.06;5073303;27;20066;-83
2023/01/19 05:20:25;;;;;;;23.35;14.15;;;17.70;74.40;;;18.68;41.62;97374.13;5077085;27;20041;-83
2023/01/19 05:22:52;;;;;;;24.55;14.95;;;17.70;74.30;;;18.66;41.57;97379.16;5077841;27;20031;-84
2023/01/19 05:25:19;;;;;;;23.45;15.15;;;17.70;74.20;;;18.64;41.44;97385.00;5079697;27;20106;-84
2023/01/19 05:27:45;;;;;;;24.58;14.82;;;17.70;74.20;;;18.63;41.55;97388.13;5070682;27;20063;-83
2023/01/19 05:30:12;;;;;;;22.55;14.23;;;17.70;74.20;;;18.67;41.40;97372.50;5074969;27;20061;-83
2023/01/19 05:32:38;;;;;;;20.55;14.52;;;17.70;74.20;;;18.65;41.42;97369.34;5068674;27;20430;-83
2023/01/19 05:35:05;;;;;;;23.90;16.50;;;17.70;74.20;;;18.68;41.49;97376.06;5074625;27;20042;-83
2023/01/19 05:37:31;;;;;;;25.85;15.43;;;17.60;74.10;;;18.63;41.39;97371.66;5077042;27;20051;-83
2023/01/19 05:39:57;;;;;;;23.63;14.88;;;17.60;74.10;;;18.64;41.41;97373.25;5091346;28;20062;-82
2023/01/19 05:42:23;;;;;;;23.55;15.20;;;17.70;74.10;;;18.69;41.21;97381.19;5097534;27;20045;-82
2023/01/19 05:44:49;;;;;;;28.05;15.15;;;17.60;73.90;;;18.63;41.31;97388.13;5080139;27;20378;-82
2023/01/19 05:47:16;;;;;;;20.25;14.07;;;17.60;74.00;;;18.63;41.37;97382.66;5096396;27;20043;-82
2023/01/19 05:49:42;;;;;;;20.80;14.50;;;17.60;74.00;;;18.65;41.15;97385.81;5107664;28;20044;-82
2023/01/19 05:52:08;;;;;;;22.80;14.77;;;17.60;74.00;;;18.63;41.21;97383.44;5080385;27;20134;-82
2023/01/19 05:54:34;;;;;;;25.67;15.68;;;17.70;74.00;;;18.62;41.44;97384.59;5098574;27;20051;-82
2023/01/19 05:57:01;;;;;;;22.00;14.45;;;17.60;73.90;;;18.65;41.45;97385.81;5098417;27;20074;-81
2023/01/19 05:59:28;;;;;;;21.55;15.13;;;17.60;73.90;;;18.66;41.19;97390.16;5059643;28;20042;-82
2023/01/19 06:01:54;;;;;;;21.30;14.88;;;17.60;73.90;;;18.65;41.11;97388.56;5079122;28;20608;-82
2023/01/19 06:04:20;;;;;;;23.05;15.02;;;17.70;73.90;;;18.62;41.30;97395.59;5080610;27;20050;-81
2023/01/19 06:06:49;;;;;;;21.92;14.43;;;17.70;73.80;;;18.59;41.24;97398.25;5078521;27;20043;-82
2023/01/19 06:09:16;;;;;;;24.42;15.55;;;17.70;73.80;;;18.61;41.26;97391.22;5111615;28;20085;-82
2023/01/19 06:11:43;;;;;;;23.77;14.60;;;17.60;73.90;;;18.63;41.25;97391.66;5079517;28;20041;-82
2023/01/19 06:14:10;;;;;;;25.67;15.90;;;17.60;74.00;;;18.64;41.23;97395.22;5093656;28;20067;-82
2023/01/19 06:16:36;;;;;;;23.92;15.35;;;17.60;74.10;;;18.65;41.33;97405.06;5080973;28;20039;-82
2023/01/19 06:19:03;;;;;;;22.70;15.77;;;17.60;74.10;;;18.59;41.39;97398.25;5063567;28;20049;-82
2023/01/19 06:21:29;;;;;;;23.00;14.75;;;17.60;74.10;;;18.63;41.41;97415.59;5097505;28;20688;-82
2023/01/19 06:23:55;;;;;;;22.10;15.52;;;17.60;74.10;;;18.62;41.23;97408.50;5096730;28;20072;-81
2023/01/19 06:26:22;;;;;;;24.27;15.23;;;17.60;74.10;;;18.62;41.29;97414.81;5094638;28;20165;-82
2023/01/19 06:28:50;;;;;;;24.23;14.77;;;17.60;74.10;;;18.56;41.42;97418.19;5114471;28;20039;-82
2023/01/19 06:31:18;;;;;;;23.38;14.55;;;17.60;74.00;;;18.62;41.41;97427.72;5066981;28;20035;-82
2023/01/19 06:33:45;;;;;;;20.85;15.10;;;17.60;73.90;;;18.62;41.19;97436.78;5078971;28;20043;-82
2023/01/19 06:36:11;;;;;;;22.85;15.55;;;17.60;74.00;;;18.61;41.16;97448.13;5078987;28;20674;-82
2023/01/19 06:38:37;;;;;;;28.23;16.45;;;17.60;74.10;;;18.57;41.38;97448.06;5062851;28;20498;-82
2023/01/19 06:41:03;;;;;;;24.13;14.82;;;17.50;74.00;;;18.60;41.38;97461.06;5080245;28;20038;-82
2023/01/19 06:43:30;;;;;;;24.30;15.68;;;17.60;74.10;;;18.62;41.31;97463.41;5076688;28;20048;-82
2023/01/19 06:45:56;;;;;;;24.40;15.00;;;17.60;74.00;;;18.62;41.17;97468.91;5064046;28;20069;-82
2023/01/19 06:48:23;;;;;;;24.23;16.00;;;17.50;74.00;;;18.60;41.05;97476.75;5092253;28;20073;-82
2023/01/19 06:50:49;;;;;;;21.52;15.60;;;17.50;74.00;;;18.60;41.23;97485.78;5079928;28;20559;-81
2023/01/19 06:53:16;;;;;;;23.88;15.73;;;17.50;73.90;;;18.60;41.30;97501.47;5089776;28;20042;-82
2023/01/19 06:55:45;;;;;;;19.90;14.68;;;17.50;73.90;;;18.60;41.11;97502.25;5078729;28;20039;-82
2023/01/19 06:58:11;;;;;;;24.55;15.85;;;17.60;73.90;;;18.58;40.99;97512.78;5112268;28;20039;-81
2023/01/19 07:00:37;;;;;;;24.67;15.48;;;17.60;73.90;;;18.58;41.21;97515.53;5094412;28;20519;-81
2023/01/19 07:03:07;;;;;;;21.10;14.57;;;17.50;73.80;;;18.54;41.20;97517.41;5077638;28;20551;-82
2023/01/19 07:05:34;;;;;;;24.00;14.82;;;17.50;73.70;;;18.53;41.30;97518.56;5096329;28;20036;-82
2023/01/19 07:08:00;;;;;;;20.88;14.40;;;17.60;73.90;;;18.57;41.18;97526.88;5080876;28;20417;-82
2023/01/19 07:10:26;;;;;;;22.23;16.38;;;17.50;74.00;;;18.56;41.29;97528.81;5094296;28;20043;-82
2023/01/19 07:12:55;;;;;;;23.83;15.30;;;17.50;74.10;;;18.54;41.39;97536.63;5114451;28;20051;-82
2023/01/19 07:15:21;;;;;;;23.33;14.75;;;17.50;74.40;;;18.58;41.44;97537.50;5077569;28;20045;-82
2023/01/19 07:17:48;;;;;;;20.67;14.93;;;17.40;74.10;;;18.57;41.29;97529.59;5113977;27;20035;-82
2023/01/19 07:20:14;;;;;;;23.30;14.75;;;17.50;74.20;;;18.56;41.13;97537.06;5084887;27;20057;-82
2023/01/19 07:22:42;;;;;;;22.48;14.68;;;17.50;74.00;;;18.55;41.27;97530.00;5084142;27;20527;-82
2023/01/19 07:25:08;;;;;;;21.52;15.98;;;17.50;74.00;;;18.58;41.20;97531.22;5084124;27;20363;-81
2023/01/19 07:27:34;;;;;;;23.27;16.42;;;17.40;73.90;;;18.59;41.07;97530.06;5064822;27;20045;-82
2023/01/19 07:30:01;;;;;;;23.90;15.23;;;17.50;74.00;;;18.56;41.13;97511.56;5096664;27;20489;-82
2023/01/19 07:32:28;;;;;;;20.08;14.50;;;17.40;73.90;;;18.56;41.17;97495.88;5101269;27;20139;-81
2023/01/19 07:34:54;;;;;;;21.92;15.57;;;17.50;74.00;;;18.54;41.25;97498.16;5100680;27;20046;-81
2023/01/19 07:37:20;;;;;;;22.98;13.90;;;17.50;74.00;;;18.54;41.30;97505.63;5097695;27;20749;-82
2023/01/19 07:39:46;;;;;;;22.08;15.27;;;17.40;74.00;;;18.57;41.19;97504.91;5114637;27;20044;-82
2023/01/19 07:42:12;;;;;;;22.23;14.88;;;17.50;74.00;;;18.57;41.06;97491.97;5065445;27;20036;-81
2023/01/19 07:44:38;;;;;;;25.48;14.88;;;17.50;74.10;;;18.54;41.26;97498.16;5080445;27;20517;-81
2023/01/19 07:47:11;;;;;;;24.08;15.73;;;17.50;74.00;;;18.58;41.04;97490.03;5101645;27;20068;-82
2023/01/19 07:49:38;;;;;;;19.83;13.85;;;17.40;73.80;;;18.58;41.01;97484.53;5103354;27;20073;-82
2023/01/19 07:52:04;;;;;;;25.45;16.08;;;17.50;73.80;;;18.57;41.28;97483.75;5079321;27;20591;-82
2023/01/19 07:54:30;;;;;;;22.40;15.40;;;17.50;73.80;;;18.58;40.98;97479.03;5098705;27;20050;-82
2023/01/19 07:56:57;;;;;;;20.70;14.75;;;17.50;73.80;;;18.56;40.81;97487.63;5117303;27;20654;-82
2023/01/19 07:59:23;;;;;;;19.60;14.15;;;17.50;73.90;;;18.62;41.17;97501.88;5074881;27;20044;-82
2023/01/19 08:01:52;;;;;;;22.15;15.15;;;17.50;74.00;;;18.59;41.31;97492.41;5081950;27;20260;-81
2023/01/19 08:04:19;;;;;;;20.10;15.77;;;17.50;74.10;;;18.59;41.00;97508.09;5135910;27;20092;-82
2023/01/19 08:06:46;;;;;;;21.05;15.38;;;17.60;73.90;;;18.56;40.83;97515.09;5080733;27;20046;-82
2023/01/19 08:09:12;;;;;;;25.27;15.38;;;17.50;73.80;;;18.61;41.02;97519.50;5082275;27;20051;-81
2023/01/19 08:11:39;;;;;;;19.35;14.98;;;17.50;73.80;;;18.64;40.78;97532.53;5082806;27;20459;-81
2023/01/19 08:14:05;;;;;;;20.83;13.93;;;17.60;73.70;;;18.65;41.24;97534.13;5092836;27;20087;-82
2023/01/19 08:16:32;;;;;;;20.50;14.52;;;17.60;73.80;;;18.67;41.09;97534.56;5117421;27;20043;-82
2023/01/19 08:18:58;;;;;;;21.92;13.73;;;17.70;73.90;;;18.68;41.16;97538.91;5083484;27;20067;-81
2023/01/19 08:21:24;;;;;;;21.75;14.43;;;17.70;73.90;;;18.65;41.08;97545.13;5080371;27;20524;-82
2023/01/19 08:23:54;;;;;;;22.90;14.50;;;17.60;73.70;;;18.70;41.07;97544.03;5097656;27;20065;-82
2023/01/19 08:26:26;;;;;;;19.70;14.40;;;17.60;73.80;;;18.69;40.89;97556.19;5080986;27;20043;-81
2023/01/19 08:29:02;;;;;;;22.73;14.23;;;17.60;73.70;;;18.68;41.08;97554.59;5084036;27;20036;-82
2023/01/19 08:31:28;;;;;;;22.48;14.88;;;17.60;73.70;;;18.73;40.90;97546.09;5063786;27;20565;-82
2023/01/19 08:33:55;;;;;;;16.58;13.32;;;17.70;73.80;;;18.73;40.98;97554.31;5061605;27;20032;-82
2023/01/19 08:36:21;;;;;;;22.33;14.90;;;17.70;73.60;;;18.75;40.83;97555.59;5100324;27;20440;-82
2023/01/19 08:38:47;;;;;;;21.23;13.75;;;17.70;73.70;;;18.79;41.03;97545.47;5115033;27;20035;-82
2023/01/19 08:41:15;;;;;;;17.15;13.20;;;17.70;73.40;;;18.81;40.88;97540.41;5077280;27;20036;-81
2023/01/19 08:43:41;;;;;;;22.58;14.15;;;17.80;73.30;;;18.83;40.63;97540.84;5082077;27;20054;-81
2023/01/19 08:46:08;;;;;;;22.25;14.13;;;17.80;73.40;;;18.85;40.77;97537.72;5095748;27;20577;-82
2023/01/19 08:48:34;;;;;;;19.27;13.57;;;17.80;73.30;;;18.87;40.62;97538.16;5082877;27;20647;-81
2023/01/19 08:51:00;;;;;;;20.90;14.45;;;17.80;73.30;;;18.89;40.87;97537.81;5081738;27;20516;-82
2023/01/19 08:53:26;;;;;;;20.33;13.43;;;17.80;73.30;;;18.88;40.84;97537.03;5097108;27;20066;-81
2023/01/19 08:55:58;;;;;;;23.48;13.85;;;17.80;73.60;;;18.91;40.76;97530.03;5099194;27;20801;-82
2023/01/19 08:58:24;;;;;;;;;;;17.90;73.70;;;18.90;41.07;97511.94;5101039;27;20059;-82
2023/01/19 09:00:51;;;;;;;16.85;13.40;;;17.90;73.40;;;18.91;40.68;97508.84;5133319;27;19927;-82
2023/01/19 09:03:21;;;;;;;19.17;14.18;;;17.90;73.40;;;18.93;40.49;97512.03;5077943;27;20114;-81
2023/01/19 09:05:48;;;;;;;19.08;12.45;;;17.90;73.40;;;18.94;40.62;97515.56;5081840;27;20422;-82
2023/01/19 09:08:14;;;;;;;18.65;13.98;;;17.90;73.30;;;18.97;40.89;97512.09;5053580;27;20043;-81
2023/01/19 09:10:48;;;;;;;18.80;13.52;;;17.90;73.40;;;18.95;41.04;97508.91;5064221;27;20417;-82
2023/01/19 09:13:14;;;;;;;18.15;13.73;;;18.00;73.50;;;19.01;41.16;97510.22;5076447;27;20050;-82
2023/01/19 09:15:41;;;;;;;19.60;13.48;;;17.90;73.40;;;19.00;40.88;97523.13;5082558;27;20541;-82
2023/01/19 09:18:14;;;;;;;18.48;12.95;;;17.90;73.40;;;19.03;40.56;97532.63;5078986;27;20084;-82
2023/01/19 09:20:41;;;;;;;21.27;13.40;;;17.90;73.50;;;19.03;40.64;97544.44;5090297;27;20045;-82
2023/01/19 09:23:16;;;;;;;22.35;13.40;;;17.90;73.40;;;19.04;40.69;97553.47;5093478;27;20070;-81
2023/01/19 09:25:43;;;;;;;16.98;11.90;;;17.90;73.50;;;19.03;40.38;97560.91;5080657;27;20042;-82
2023/01/19 09:28:11;;;;;;;19.02;13.48;;;17.90;73.40;;;19.03;40.66;97551.84;5079323;27;20118;-82
2023/01/19 09:30:38;;;;;;;19.33;12.98;;;17.90;73.30;;;19.00;40.76;97550.63;5059931;27;20472;-82
2023/01/19 09:33:10;;;;;;;19.58;12.98;;;17.90;73.40;;;19.05;40.66;97547.59;5079259;27;20039;-82
2023/01/19 09:35:37;;;;;;;17.63;12.82;;;17.90;73.40;;;19.09;40.67;97547.69;5112620;27;20043;-82
2023/01/19 09:38:06;;;;;;;15.35;12.32;;;17.90;73.40;;;19.03;40.73;97538.13;5063190;27;20043;-82
2023/01/19 09:40:32;;;;;;;17.48;13.05;;;18.00;73.40;;;19.06;40.55;97545.66;5076118;27;20092;-82
2023/01/19 09:43:13;;;;;;;16.45;11.48;;;18.00;73.30;;;19.07;40.41;97544.50;5096609;27;20039;-82
2023/01/19 09:45:47;;;;;;;17.02;12.38;;;18.00;73.20;;;19.05;40.87;97541.31;5094888;27;20039;-82
2023/01/19 09:48:31;;;;;;;16.13;11.93;;;18.00;73.10;;;19.03;40.53;97538.94;5096113;27;20039;-82
2023/01/19 09:51:01;;;;;;;21.58;14.02;;;18.00;73.10;;;19.08;40.37;97526.84;5131663;27;20092;-81
2023/01/19 09:53:57;;;;;;;19.27;12.57;;;18.00;73.20;;;19.05;40.76;97527.56;5062264;27;20549;-82
2023/01/19 09:56:25;;;;;;;18.40;12.77;;;18.00;73.30;;;19.05;40.46;97527.56;5108742;27;20035;-82
2023/01/19 09:58:51;;;;;;;19.92;12.35;;;18.00;73.30;;;19.03;40.66;97521.63;5056500;28;20141;-82
2023/01/19 10:01:36;;;;;;;19.48;14.07;;;18.00;73.40;;;19.04;40.56;97532.28;5074544;28;20043;-82
2023/01/19 10:04:27;;;;;;;15.80;11.23;;;18.00;73.30;;;19.02;40.60;97533.78;5096512;27;20046;-82
2023/01/19 10:07:07;;;;;;;18.05;11.65;;;18.00;73.40;;;19.03;40.68;97530.69;5112412;27;20473;-82
2023/01/19 10:09:46;;;;;;;17.08;12.20;;;18.00;73.20;;;19.05;40.56;97522.84;5080995;27;20479;-82
2023/01/19 10:13:00;;;;;;;17.70;11.90;;;18.00;73.10;;;19.06;40.63;97509.94;5112059;28;20035;-82
2023/01/19 10:15:51;;;;;;;22.10;13.65;;;18.00;73.20;;;19.07;40.52;97500.53;5126268;28;20064;-82
2023/01/19 10:18:34;;;;;;;16.05;12.98;;;18.00;73.20;;;19.07;40.52;97503.28;5111405;28;20046;-82
2023/01/19 10:21:11;;;;;;;20.58;13.88;;;18.10;73.10;;;19.04;40.57;97512.25;5110972;28;20600;-82
2023/01/19 10:23:42;;;;;;;17.17;12.10;;;18.00;73.00;;;19.06;40.60;97494.22;5092618;28;20565;-82